Time;durP1;ratioP1;P1;durP2;ratioP2;P2;SDS_P1;SDS_P2;PMS_P1;PMS_P2;Temp;Humidity;BMP_temperature;BMP_pressure;BME280_temperature;BME280_humidity;BME280_pressure;Samples;Min_cycle;Max_cycle;Signal;HPM_P1;HPM_P2
2020/12/20 00:01:26;;;;;;;43.92;23.73;;;;;;;-0.45;78.52;97752.25;1702867;84;21165;-83
2020/12/20 00:03:55;;;;;;;53.70;29.45;;;;;;;-0.49;78.64;97750.66;1701791;84;21221;-82
2020/12/20 00:06:24;;;;;;;59.45;30.05;;;;;;;-0.57;79.05;97750.09;1700078;84;21217;-83
2020/12/20 00:08:52;;;;;;;57.45;30.48;;;;;;;-0.62;79.28;97754.12;1699276;84;21213;-82
2020/12/20 00:11:21;;;;;;;51.13;25.60;;;;;;;-0.61;79.59;97749.79;1698896;83;22269;-84
2020/12/20 00:13:49;;;;;;;55.40;28.83;;;;;;;-0.64;79.70;97746.87;1700781;84;21194;-83
2020/12/20 00:16:18;;;;;;;53.58;26.17;;;;;;;-0.63;80.02;97750.30;1698909;84;21201;-83
2020/12/20 00:18:48;;;;;;;59.25;31.20;;;;;;;-0.58;80.17;97753.13;1695322;84;21098;-82
2020/12/20 00:21:17;;;;;;;60.58;29.55;;;;;;;-0.55;80.32;97754.75;1694054;84;21168;-83
2020/12/20 00:23:46;;;;;;;54.85;29.18;;;;;;;-0.44;80.68;97753.09;1699411;84;22228;-82
2020/12/20 00:26:16;;;;;;;50.75;25.15;;;;;;;-0.33;80.44;97754.86;1698335;84;21160;-83
2020/12/20 00:28:44;;;;;;;52.48;27.35;;;;;;;-0.25;80.41;97758.02;1698425;83;21202;-83
2020/12/20 00:31:17;;;;;;;45.05;25.20;;;;;;;-0.16;80.24;97752.53;1698905;84;21136;-83
2020/12/20 00:33:45;;;;;;;49.60;27.02;;;;;;;-0.17;79.81;97759.91;1704315;84;21109;-84
2020/12/20 00:36:14;;;;;;;48.52;26.85;;;;;;;-0.21;79.63;97757.02;1704519;84;21218;-83
2020/12/20 00:38:44;;;;;;;49.15;26.12;;;;;;;-0.30;79.73;97763.38;1702650;84;21197;-83
2020/12/20 00:41:12;;;;;;;46.80;26.27;;;;;;;-0.33;80.04;97758.75;1679466;84;21320;-81
2020/12/20 00:43:41;;;;;;;51.88;28.70;;;;;;;-0.31;80.08;97762.95;1699136;84;21070;-83
2020/12/20 00:46:10;;;;;;;59.93;29.85;;;;;;;-0.29;79.95;97771.98;1705781;84;21062;-84
2020/12/20 00:48:39;;;;;;;55.35;28.02;;;;;;;-0.28;80.10;97767.20;1704710;84;21527;-83
2020/12/20 00:51:09;;;;;;;53.13;29.18;;;;;;;-0.21;79.95;97771.26;1705468;84;21154;-84
2020/12/20 00:53:38;;;;;;;54.42;27.80;;;;;;;-0.21;79.95;97763.94;1703754;84;21216;-84
2020/12/20 00:56:14;;;;;;;49.67;24.27;;;;;;;-0.12;80.00;97764.47;1688595;84;21066;-83
2020/12/20 00:58:43;;;;;;;54.60;27.13;;;;;;;-0.08;79.45;97775.09;1652937;84;21150;-83
2020/12/20 01:01:12;;;;;;;56.58;27.22;;;;;;;-0.12;79.65;97770.95;1679492;84;21090;-84
2020/12/20 01:03:41;;;;;;;50.12;25.27;;;;;;;-0.04;79.84;97771.95;1700548;84;21126;-84
2020/12/20 01:06:20;;;;;;;53.87;26.60;;;;;;;0.04;79.57;97767.33;1700732;84;21123;-83
2020/12/20 01:08:51;;;;;;;48.78;27.80;;;;;;;0.06;79.25;97769.86;1697197;84;21065;-82
2020/12/20 01:11:20;;;;;;;48.25;25.10;;;;;;;0.08;78.98;97768.92;1705245;84;21146;-84
2020/12/20 01:13:52;;;;;;;49.77;28.30;;;;;;;-0.01;78.96;97773.97;1702291;84;21266;-83
2020/12/20 01:16:26;;;;;;;47.40;23.92;;;;;;;-0.06;79.16;97775.91;1704250;83;21051;-83
2020/12/20 01:18:54;;;;;;;50.00;26.85;;;;;;;-0.03;79.18;97774.94;1703962;84;21129;-84
2020/12/20 01:21:23;;;;;;;48.17;27.52;;;;;;;-0.11;78.91;97771.33;1665053;84;21153;-84
2020/12/20 01:23:52;;;;;;;48.30;24.92;;;;;;;-0.23;78.95;97769.18;1695756;84;21125;-84
2020/12/20 01:26:23;;;;;;;44.70;24.47;;;;;;;-0.29;79.28;97765.06;1694252;84;21200;-84
2020/12/20 01:28:52;;;;;;;42.20;23.60;;;;;;;-0.34;79.24;97775.17;1704632;84;21216;-84
2020/12/20 01:31:21;;;;;;;48.00;24.52;;;;;;;-0.43;79.38;97770.30;1703397;84;21106;-84
2020/12/20 01:33:51;;;;;;;47.25;25.57;;;;;;;-0.47;79.46;97772.17;1698326;84;21177;-82
2020/12/20 01:36:21;;;;;;;54.00;30.08;;;;;;;-0.44;79.85;97771.20;1704418;84;21118;-83
2020/12/20 01:38:52;;;;;;;48.38;25.88;;;;;;;-0.41;79.67;97769.83;1701132;84;21381;-83
2020/12/20 01:41:21;;;;;;;48.38;24.20;;;;;;;-0.35;79.86;97769.61;1704301;84;21079;-83
2020/12/20 01:43:52;;;;;;;47.00;24.20;;;;;;;-0.24;79.83;97767.47;1679698;84;21150;-82
2020/12/20 01:46:43;;;;;;;45.33;23.45;;;;;;;-0.12;79.58;97763.59;1853151;77;28366;-82
2020/12/20 01:49:14;;;;;;;43.10;23.98;;;;;;;-0.09;79.37;97765.64;1820529;78;21054;-84
2020/12/20 01:51:43;;;;;;;40.67;20.68;;;;;;;-0.10;78.66;97763.95;1816015;78;21857;-84
2020/12/20 01:54:13;;;;;;;45.43;22.65;;;;;;;-0.12;78.75;97770.95;1751801;81;21081;-84
2020/12/20 01:56:46;;;;;;;35.70;20.08;;;;;;;-0.09;78.69;97770.81;1820935;78;21072;-82
2020/12/20 01:59:18;;;;;;;36.35;19.37;;;;;;;-0.11;78.53;97775.22;1753189;81;21228;-83
2020/12/20 02:01:49;;;;;;;37.05;20.65;;;;;;;-0.15;78.60;97771.04;1823367;78;21140;-83
2020/12/20 02:04:22;;;;;;;39.70;20.23;;;;;;;-0.18;78.59;97770.29;1743042;80;21376;-83
2020/12/20 02:06:52;;;;;;;42.80;21.97;;;;;;;-0.19;78.91;97764.27;1823507;77;21078;-81
2020/12/20 02:09:22;;;;;;;38.48;19.70;;;;;;;-0.12;79.02;97762.30;1754173;80;21105;-82
2020/12/20 02:12:03;;;;;;;40.90;21.77;;;;;;;-0.12;78.71;97760.59;1824246;77;21113;-83
2020/12/20 02:14:34;;;;;;;35.20;18.20;;;;;;;-0.19;78.70;97764.72;1753437;80;21050;-83
2020/12/20 02:17:05;;;;;;;36.40;20.20;;;;;;;-0.23;78.88;97763.16;1823766;77;21365;-82
2020/12/20 02:19:37;;;;;;;42.48;18.62;;;;;;;-0.28;78.86;97765.45;1750946;81;21117;-83
2020/12/20 02:22:16;;;;;;;40.98;21.10;;;;;;;-0.21;79.05;97771.26;1820061;78;21126;-83
2020/12/20 02:24:46;;;;;;;41.65;21.35;;;;;;;-0.13;78.74;97770.52;1820534;78;21506;-83
2020/12/20 02:27:19;;;;;;;37.83;20.20;;;;;;;-0.07;78.67;97770.30;1749427;81;21156;-83
2020/12/20 02:29:50;;;;;;;;;;;;;;;-0.02;78.45;97768.40;1822743;78;22232;-83
2020/12/20 02:32:18;;;;;;;37.98;18.73;;;;;;;0.07;78.26;97773.71;1788604;78;20231;-83
2020/12/20 02:34:48;;;;;;;38.15;19.32;;;;;;;0.11;78.01;97778.31;1815308;78;21152;-83
2020/12/20 02:37:19;;;;;;;33.80;18.62;;;;;;;0.15;77.65;97774.72;1820029;78;21109;-83
2020/12/20 02:39:51;;;;;;;39.83;19.77;;;;;;;0.17;77.38;97777.63;1820112;78;21112;-84
2020/12/20 02:42:19;;;;;;;34.13;17.55;;;;;;;0.17;77.41;97780.67;1750666;82;21234;-83
2020/12/20 02:44:49;;;;;;;34.33;18.37;;;;;;;0.21;77.13;97780.52;1820248;78;21148;-83
2020/12/20 02:47:18;;;;;;;31.95;17.30;;;;;;;0.23;76.87;97783.04;1755712;81;21144;-83
2020/12/20 02:49:48;;;;;;;34.95;16.07;;;;;;;0.24;76.81;97774.40;1786974;80;21592;-84
2020/12/20 02:52:25;;;;;;;28.98;15.15;;;;;;;0.21;76.53;97774.49;1785032;80;21101;-84
2020/12/20 02:54:55;;;;;;;31.12;16.67;;;;;;;0.05;76.43;97775.48;1787479;80;21383;-84
2020/12/20 02:57:25;;;;;;;32.70;18.10;;;;;;;-0.10;76.61;97780.78;1785342;80;21129;-85
2020/12/20 02:59:57;;;;;;;30.80;16.15;;;;;;;-0.16;76.91;97774.53;1782071;80;21057;-83
2020/12/20 03:02:27;;;;;;;31.35;16.40;;;;;;;-0.18;77.16;97773.72;1786248;80;21489;-83
2020/12/20 03:04:57;;;;;;;32.38;18.70;;;;;;;-0.15;77.31;97776.22;1786460;80;21140;-84
2020/12/20 03:07:25;;;;;;;38.20;20.88;;;;;;;-0.13;77.44;97764.05;1786959;80;22249;-83
2020/12/20 03:09:57;;;;;;;42.80;21.23;;;;;;;-0.13;77.28;97774.41;1786679;80;21065;-82
2020/12/20 03:12:26;;;;;;;34.98;18.20;;;;;;;-0.19;77.28;97768.61;1786983;80;21082;-83
2020/12/20 03:14:56;;;;;;;35.00;18.92;;;;;;;-0.27;77.31;97768.43;1786988;80;21054;-84
2020/12/20 03:17:24;;;;;;;31.75;18.20;;;;;;;-0.39;77.42;97769.31;1758507;80;21070;-85
2020/12/20 03:19:55;;;;;;;34.27;17.95;;;;;;;-0.46;77.70;97770.42;1788272;80;21206;-84
2020/12/20 03:22:30;;;;;;;35.33;18.60;;;;;;;-0.47;78.00;97775.21;1788663;80;21236;-84
2020/12/20 03:25:04;;;;;;;33.08;16.85;;;;;;;-0.47;78.21;97767.45;1743819;80;21034;-86
2020/12/20 03:27:38;;;;;;;33.58;18.65;;;;;;;-0.40;78.37;97768.92;1743476;80;21589;-83
2020/12/20 03:30:12;;;;;;;32.73;17.98;;;;;;;-0.37;78.29;97770.09;1784035;80;21112;-84
2020/12/20 03:32:42;;;;;;;31.42;16.45;;;;;;;-0.38;78.45;97764.08;1740578;80;22377;-83
2020/12/20 03:35:20;;;;;;;29.10;16.12;;;;;;;-0.36;78.54;97765.30;1753850;80;21184;-83
2020/12/20 03:37:52;;;;;;;32.73;17.30;;;;;;;-0.27;78.67;97759.38;1755616;81;21127;-82
2020/12/20 03:40:27;;;;;;;31.27;16.07;;;;;;;-0.18;78.63;97754.30;1757369;81;21169;-83
2020/12/20 03:42:57;;;;;;;36.00;17.75;;;;;;;-0.11;78.58;97751.92;1757236;81;21479;-84
2020/12/20 03:45:27;;;;;;;33.42;16.15;;;;;;;-0.06;78.37;97748.72;1786840;80;21198;-83
2020/12/20 03:47:57;;;;;;;36.08;16.85;;;;;;;-0.08;78.37;97743.18;1790433;78;21065;-83
2020/12/20 03:50:27;;;;;;;39.45;20.55;;;;;;;-0.05;78.55;97745.67;1821524;78;21157;-82
2020/12/20 03:52:56;;;;;;;37.00;20.12;;;;;;;-0.07;78.42;97749.59;1821316;78;21038;-82
2020/12/20 03:55:29;;;;;;;35.88;18.17;;;;;;;-0.07;78.53;97746.16;1751085;82;21132;-83
2020/12/20 03:57:58;;;;;;;28.25;15.35;;;;;;;-0.03;78.76;97748.59;1821476;78;21213;-83
2020/12/20 04:00:28;;;;;;;34.25;16.35;;;;;;;0.03;78.71;97752.70;1750267;82;21141;-84
2020/12/20 04:02:59;;;;;;;29.67;14.90;;;;;;;0.04;78.99;97750.95;1817846;78;21598;-82
2020/12/20 04:05:29;;;;;;;26.15;13.78;;;;;;;0.15;79.37;97753.55;1750221;82;21097;-83
2020/12/20 04:07:59;;;;;;;29.45;14.83;;;;;;;0.24;79.33;97754.52;1820634;78;21093;-84
2020/12/20 04:10:27;;;;;;;29.37;13.62;;;;;;;0.34;79.34;97760.63;1744876;81;21344;-83
2020/12/20 04:12:57;;;;;;;30.35;15.50;;;;;;;0.40;79.32;97753.92;1819080;78;21640;-83
2020/12/20 04:15:26;;;;;;;27.93;14.00;;;;;;;0.49;79.20;97753.59;1749382;82;21133;-85
2020/12/20 04:17:55;;;;;;;27.98;14.15;;;;;;;0.52;78.93;97748.27;1819181;78;21069;-84
2020/12/20 04:20:24;;;;;;;27.17;14.23;;;;;;;0.52;78.81;97750.41;1819401;78;21046;-84
2020/12/20 04:22:54;;;;;;;27.90;14.43;;;;;;;0.59;78.46;97752.76;1749113;82;21384;-83
2020/12/20 04:25:28;;;;;;;24.40;13.72;;;;;;;0.58;77.90;97754.52;1810522;78;21593;-83
2020/12/20 04:27:58;;;;;;;25.02;13.75;;;;;;;0.57;77.37;97751.98;1747069;82;21165;-82
2020/12/20 04:30:27;;;;;;;27.42;14.73;;;;;;;0.47;76.82;97761.39;1819108;78;21159;-84
2020/12/20 04:32:59;;;;;;;24.67;13.88;;;;;;;0.37;76.14;97763.97;1819153;78;21184;-83
2020/12/20 04:35:28;;;;;;;24.90;13.70;;;;;;;0.22;76.13;97764.06;1819606;78;22327;-83
2020/12/20 04:37:58;;;;;;;24.85;13.78;;;;;;;0.15;76.10;97769.09;1819271;78;21148;-83
2020/12/20 04:40:28;;;;;;;27.73;14.68;;;;;;;0.05;75.99;97767.72;1749370;81;21133;-82
2020/12/20 04:43:11;;;;;;;24.50;13.72;;;;;;;0.01;76.07;97764.88;1819931;78;21728;-83
2020/12/20 04:45:43;;;;;;;26.52;15.32;;;;;;;-0.02;76.05;97763.22;1749446;81;21069;-83
2020/12/20 04:48:13;;;;;;;24.60;13.38;;;;;;;-0.03;76.03;97773.64;1818585;78;21403;-84
2020/12/20 04:50:50;;;;;;;25.50;12.70;;;;;;;-0.02;75.96;97775.33;1748916;82;21152;-85
2020/12/20 04:53:20;;;;;;;22.80;13.20;;;;;;;-0.02;75.96;97776.17;1819156;78;21585;-83
2020/12/20 04:55:51;;;;;;;23.83;12.73;;;;;;;-0.01;75.93;97777.84;1748412;82;21607;-83
2020/12/20 04:58:29;;;;;;;25.92;12.90;;;;;;;0.00;75.92;97772.25;1874906;75;28471;-83
2020/12/20 05:00:59;;;;;;;23.22;12.78;;;;;;;-0.01;75.96;97777.01;1819779;78;21078;-85
2020/12/20 05:03:29;;;;;;;21.15;12.78;;;;;;;0.01;76.12;97781.70;1820403;78;21267;-81
2020/12/20 05:06:00;;;;;;;21.05;12.50;;;;;;;0.03;75.92;97777.75;1820331;78;21204;-82
2020/12/20 05:08:30;;;;;;;25.82;14.40;;;;;;;-0.05;75.97;97784.52;1821070;78;21471;-83
2020/12/20 05:10:59;;;;;;;27.82;13.53;;;;;;;-0.15;76.21;97789.61;1821520;78;21506;-84
2020/12/20 05:13:40;;;;;;;27.77;14.20;;;;;;;-0.11;76.66;97786.02;1821052;78;21125;-84
2020/12/20 05:16:32;;;;;;;29.20;14.90;;;;;;;-0.04;76.74;97783.16;1819373;78;21368;-83
2020/12/20 05:19:04;;;;;;;24.23;14.20;;;;;;;0.03;76.85;97785.52;1819406;78;21128;-85
2020/12/20 05:21:34;;;;;;;25.50;13.50;;;;;;;0.11;77.09;97782.20;1820884;78;21113;-83
2020/12/20 05:24:28;;;;;;;23.38;12.88;;;;;;;0.17;77.19;97786.70;1820745;78;21144;-84
2020/12/20 05:27:02;;;;;;;24.80;12.58;;;;;;;0.23;77.24;97785.63;1820353;78;21048;-84
2020/12/20 05:29:32;;;;;;;;;;;;;;;0.31;77.33;97778.89;1793342;78;21382;-84
2020/12/20 05:32:03;;;;;;;27.17;12.95;;;;;;;0.36;77.25;97784.75;1820407;78;20243;-83
2020/12/20 05:34:34;;;;;;;24.52;13.22;;;;;;;0.36;77.34;97789.48;1819384;78;21601;-82
2020/12/20 05:37:11;;;;;;;25.15;13.18;;;;;;;0.38;77.47;97790.27;1820843;78;21105;-83
2020/12/20 05:39:46;;;;;;;25.70;12.70;;;;;;;0.40;77.45;97790.20;1820645;78;21556;-84
2020/12/20 05:42:23;;;;;;;24.80;12.90;;;;;;;0.40;77.71;97791.03;1814687;78;21145;-84
2020/12/20 05:45:07;;;;;;;26.65;12.75;;;;;;;0.43;77.77;97801.30;1820958;78;21637;-85
2020/12/20 05:47:41;;;;;;;24.70;12.82;;;;;;;0.45;77.73;97806.42;1820545;78;21072;-83
2020/12/20 05:50:11;;;;;;;23.18;12.73;;;;;;;0.46;77.91;97803.77;1820756;78;21085;-83
2020/12/20 05:52:40;;;;;;;24.12;12.82;;;;;;;0.47;77.93;97804.61;1821467;78;21022;-83
2020/12/20 05:55:14;;;;;;;26.02;12.47;;;;;;;0.48;78.27;97808.91;1821278;78;21360;-85
2020/12/20 05:57:43;;;;;;;34.25;15.15;;;;;;;0.51;78.10;97813.52;1816969;77;21089;-83
2020/12/20 06:00:13;;;;;;;41.25;20.72;;;;;;;0.50;78.20;97813.13;1813601;79;21160;-84
2020/12/20 06:02:43;;;;;;;38.98;18.67;;;;;;;0.50;78.25;97815.72;1813905;79;21049;-83
2020/12/20 06:05:12;;;;;;;35.73;16.93;;;;;;;0.50;78.29;97817.01;1813837;79;21633;-82
2020/12/20 06:07:43;;;;;;;37.10;16.97;;;;;;;0.53;78.25;97824.69;1814334;79;21346;-84
2020/12/20 06:10:13;;;;;;;34.35;15.30;;;;;;;0.59;78.19;97824.88;1813894;79;21109;-83
2020/12/20 06:12:44;;;;;;;29.32;14.23;;;;;;;0.66;77.85;97819.04;1813397;79;21149;-83
2020/12/20 06:15:13;;;;;;;31.12;14.07;;;;;;;0.69;77.65;97819.75;1729053;79;21116;-85
2020/12/20 06:17:45;;;;;;;27.17;13.03;;;;;;;0.71;77.43;97824.45;1813759;78;21263;-85
2020/12/20 06:20:20;;;;;;;24.40;13.62;;;;;;;0.74;76.80;97824.77;1753180;79;21262;-83
2020/12/20 06:22:55;;;;;;;31.80;16.37;;;;;;;0.71;75.77;97823.57;1813012;79;21189;-84
2020/12/20 06:25:27;;;;;;;31.70;17.70;;;;;;;0.57;75.03;97827.15;1813585;79;21593;-84
2020/12/20 06:28:06;;;;;;;43.68;20.92;;;;;;;0.44;74.67;97837.97;1814278;79;21121;-84
2020/12/20 06:30:51;;;;;;;40.50;23.20;;;;;;;0.36;74.28;97836.12;1814030;79;21491;-84
2020/12/20 06:33:53;;;;;;;34.27;19.12;;;;;;;0.29;74.05;97838.52;1814224;78;21350;-83
2020/12/20 06:36:43;;;;;;;47.10;22.35;;;;;;;0.15;73.92;97840.77;1814117;79;21192;-85
2020/12/20 06:39:16;;;;;;;51.40;25.52;;;;;;;0.05;74.20;97840.23;1814517;79;21117;-82
2020/12/20 06:41:48;;;;;;;45.88;23.85;;;;;;;0.03;74.12;97843.33;1813992;79;21163;-84
2020/12/20 06:44:17;;;;;;;44.93;22.40;;;;;;;-0.03;74.08;97837.92;1762721;79;21070;-83
2020/12/20 06:46:49;;;;;;;36.03;20.08;;;;;;;-0.09;74.33;97842.47;1813838;79;21352;-83
2020/12/20 06:49:38;;;;;;;43.45;21.95;;;;;;;-0.09;74.38;97834.25;1813586;79;21499;-83
2020/12/20 06:52:22;;;;;;;46.48;25.12;;;;;;;-0.06;74.33;97847.10;1812835;79;20986;-83
2020/12/20 06:55:14;;;;;;;41.50;20.72;;;;;;;-0.06;74.17;97850.98;1813716;79;21081;-83
2020/12/20 06:58:05;;;;;;;37.08;19.70;;;;;;;-0.03;73.99;97848.28;1818427;77;21121;-82
2020/12/20 07:00:57;;;;;;;39.10;20.60;;;;;;;-0.04;73.83;97850.92;1824539;78;21801;-83
2020/12/20 07:03:40;;;;;;;40.98;20.68;;;;;;;-0.08;73.87;97854.06;1825178;78;21093;-83
2020/12/20 07:06:13;;;;;;;49.63;22.95;;;;;;;-0.09;73.89;97859.30;1824586;78;21044;-83
2020/12/20 07:08:58;;;;;;;47.67;24.40;;;;;;;-0.15;74.16;97861.64;1823451;78;21184;-82
2020/12/20 07:11:28;;;;;;;46.63;23.10;;;;;;;-0.13;74.58;97862.42;1824569;78;21049;-84
2020/12/20 07:13:57;;;;;;;44.80;23.52;;;;;;;-0.04;74.69;97861.28;1824327;78;21140;-83
2020/12/20 07:19:26;;;;;;;39.38;21.07;;;;;;;0.00;74.91;97853.81;1775939;79;28106;-84
2020/12/20 07:22:00;;;;;;;40.17;20.57;;;;;;;-0.05;75.12;97860.89;1739658;82;21043;-82
2020/12/20 07:24:33;;;;;;;41.42;20.60;;;;;;;-0.01;75.25;97859.87;1738257;82;21209;-84
2020/12/20 07:27:04;;;;;;;36.08;18.48;;;;;;;0.05;75.26;97859.66;1738545;82;28741;-83
2020/12/20 07:29:38;;;;;;;32.45;18.00;;;;;;;0.10;75.17;97860.34;1738274;82;21083;-81
2020/12/20 07:32:08;;;;;;;32.53;18.48;;;;;;;0.09;75.22;97861.25;1738224;82;21189;-84
2020/12/20 07:34:40;;;;;;;37.50;19.87;;;;;;;0.06;75.30;97856.61;1738848;82;21126;-84
2020/12/20 07:37:16;;;;;;;38.23;18.92;;;;;;;0.08;75.45;97856.97;1669105;82;21350;-83
2020/12/20 07:40:06;;;;;;;42.73;20.12;;;;;;;0.13;75.41;97855.52;1738096;82;21074;-85
2020/12/20 07:42:37;;;;;;;38.25;20.17;;;;;;;0.12;75.45;97853.80;1738874;81;21233;-85
2020/12/20 07:45:10;;;;;;;36.80;19.23;;;;;;;0.13;75.61;97857.66;1738565;82;21116;-84
2020/12/20 07:47:50;;;;;;;52.60;27.87;;;;;;;0.14;75.69;97862.39;1718637;82;21086;-84
2020/12/20 07:50:25;;;;;;;48.15;27.67;;;;;;;0.15;75.56;97861.03;1738672;82;21436;-84
2020/12/20 07:53:02;;;;;;;49.55;27.95;;;;;;;0.13;75.67;97863.30;1739181;82;21149;-83
2020/12/20 07:55:51;;;;;;;48.98;26.68;;;;;;;0.17;75.63;97862.27;1738879;82;21075;-85
2020/12/20 07:58:21;;;;;;;45.75;25.48;;;;;;;0.16;75.77;97864.47;1739248;82;21166;-84
2020/12/20 08:01:04;;;;;;;49.50;26.30;;;;;;;0.21;75.76;97867.74;1739545;82;21130;-86
2020/12/20 08:03:42;;;;;;;50.92;27.13;;;;;;;0.24;75.85;97862.47;1738996;82;21278;-83
2020/12/20 08:06:17;;;;;;;47.78;25.15;;;;;;;0.24;75.95;97865.91;1719758;82;21169;-84
2020/12/20 08:08:47;;;;;;;56.15;28.15;;;;;;;0.23;75.97;97865.93;1739155;82;21904;-84
2020/12/20 08:11:22;;;;;;;46.48;26.20;;;;;;;0.23;76.28;97876.30;1739167;82;21174;-83
2020/12/20 08:13:56;;;;;;;48.95;28.07;;;;;;;0.25;76.54;97875.36;1738998;82;21126;-85
2020/12/20 08:16:52;;;;;;;53.42;28.45;;;;;;;0.37;76.58;97877.12;1739116;82;22076;-85
2020/12/20 08:19:41;;;;;;;40.65;22.62;;;;;;;0.47;76.36;97877.16;1739569;80;21130;-84
2020/12/20 08:22:21;;;;;;;27.35;15.85;;;;;;;0.51;76.22;97883.48;1737733;82;21074;-85
2020/12/20 08:24:50;;;;;;;16.80;10.03;;;;;;;0.62;76.46;97887.44;1739455;80;21618;-85
2020/12/20 08:27:44;;;;;;;20.68;10.65;;;;;;;0.76;76.15;97886.02;1739545;82;21106;-84
2020/12/20 08:30:38;;;;;;;21.87;12.50;;;;;;;0.84;75.94;97883.61;1736979;82;21487;-85
2020/12/20 08:33:34;;;;;;;20.88;11.40;;;;;;;0.98;76.03;97883.92;1738938;82;21062;-84
2020/12/20 08:36:17;;;;;;;21.57;11.15;;;;;;;1.10;75.71;97877.42;1739060;81;21093;-86
2020/12/20 08:39:29;;;;;;;21.85;12.03;;;;;;;1.18;75.19;97872.77;1738755;82;21198;-84
2020/12/20 08:42:13;;;;;;;23.85;12.23;;;;;;;1.26;75.12;97879.81;1739233;81;21578;-84
2020/12/20 08:45:18;;;;;;;20.68;11.05;;;;;;;1.32;74.94;97874.39;1714475;81;21249;-86
2020/12/20 08:48:29;;;;;;;22.65;11.80;;;;;;;1.37;74.83;97869.02;1731126;83;21171;-83
2020/12/20 08:51:06;;;;;;;22.45;12.10;;;;;;;1.39;74.54;97868.50;1734078;83;21132;-84
2020/12/20 08:53:38;;;;;;;;;;;;;;;1.39;74.58;97867.20;1736097;83;21171;-84
2020/12/20 08:56:15;;;;;;;;;;;;;;;1.39;74.54;97868.50;1707416;83;20191;-85
2020/12/20 08:58:50;;;;;;;30.80;16.00;;;;;;;1.28;74.84;97864.56;1729030;83;20219;-85
2020/12/20 09:01:44;;;;;;;24.05;14.63;;;;;;;1.30;74.89;97865.38;1734042;81;21174;-84
2020/12/20 09:05:17;;;;;;;26.55;13.93;;;;;;;1.32;74.87;97862.25;1708036;81;21143;-83
2020/12/20 09:08:37;;;;;;;26.00;13.72;;;;;;;1.38;74.84;97857.27;1817396;77;28151;-85
2020/12/20 09:11:45;;;;;;;30.43;17.07;;;;;;;1.37;74.67;97861.23;1761150;78;21137;-86
2020/12/20 09:15:07;;;;;;;29.02;15.30;;;;;;;1.39;74.77;97865.90;1786682;80;21205;-83
2020/12/20 09:17:47;;;;;;;24.02;14.00;;;;;;;1.40;74.75;97857.20;1786446;80;21077;-85
2020/12/20 09:20:56;;;;;;;25.27;15.10;;;;;;;1.39;75.02;97865.90;1785486;80;21177;-84
2020/12/20 09:24:29;;;;;;;25.23;14.65;;;;;;;1.39;74.77;97868.04;1760816;80;21168;-84
2020/12/20 09:28:33;;;;;;;25.65;16.07;;;;;;;1.40;74.86;97864.53;1650164;80;21188;31
2020/12/20 09:35:20;;;;;;;23.47;14.47;;;;;;;1.33;74.13;97856.61;1676559;83;21094;-84
2020/12/20 09:38:44;;;;;;;26.90;14.85;;;;;;;1.18;74.39;97855.45;1694845;83;21149;-84
2020/12/20 09:41:38;;;;;;;27.55;14.65;;;;;;;1.15;75.16;97849.55;1667056;85;21085;-86
2020/12/20 09:45:13;;;;;;;;;;;;;;;1.22;75.28;97844.05;1669571;86;21170;-84
2020/12/20 09:48:51;;;;;;;23.92;13.80;;;;;;;1.33;75.15;97843.17;1686780;84;20171;-85
2020/12/20 09:52:05;;;;;;;22.62;13.48;;;;;;;1.36;74.77;97848.69;1602242;89;21074;-85
2020/12/20 09:54:59;;;;;;;19.42;11.43;;;;;;;1.32;74.67;97841.95;1601619;89;21188;-85
2020/12/20 09:58:16;;;;;;;20.92;12.73;;;;;;;1.27;74.41;97846.47;1597424;89;21136;-84
2020/12/20 10:01:28;;;;;;;23.73;15.08;;;;;;;1.17;74.61;97840.80;1599897;89;21132;-84
2020/12/20 10:04:51;;;;;;;20.90;12.18;;;;;;;0.98;74.77;97838.53;1605617;82;21174;31
2020/12/20 10:08:08;;;;;;;26.75;14.93;;;;;;;0.88;75.22;97848.41;1668139;82;21108;-84
2020/12/20 10:11:51;;;;;;;22.40;13.75;;;;;;;0.78;75.42;97841.91;1722230;82;21132;-85
2020/12/20 10:15:00;;;;;;;18.07;10.72;;;;;;;0.78;75.90;97841.45;1717041;83;21096;-85
2020/12/20 10:18:08;;;;;;;26.75;13.38;;;;;;;0.85;75.92;97842.52;1709677;84;21168;-81
2020/12/20 10:21:12;;;;;;;20.93;11.83;;;;;;;0.90;76.09;97834.95;1707691;82;21383;31
2020/12/20 10:24:00;;;;;;;20.95;11.88;;;;;;;1.00;76.01;97828.94;1643576;87;21085;-83
2020/12/20 10:26:29;;;;;;;23.07;12.55;;;;;;;0.99;75.84;97830.69;1643260;87;21138;-81
2020/12/20 10:29:04;;;;;;;19.57;11.57;;;;;;;1.06;76.00;97829.98;1643667;86;21219;-83
2020/12/20 10:31:40;;;;;;;18.37;11.35;;;;;;;1.13;75.80;97828.00;1643936;87;21205;-82
2020/12/20 10:34:23;;;;;;;20.90;11.88;;;;;;;1.14;75.64;97824.06;1643668;87;21411;-84
2020/12/20 10:36:57;;;;;;;34.33;18.57;;;;;;;1.21;75.64;97828.56;1643763;87;21167;-83
2020/12/20 10:39:27;;;;;;;28.65;16.65;;;;;;;1.24;75.54;97831.86;1643611;87;21180;-83
2020/12/20 10:41:58;;;;;;;32.83;19.25;;;;;;;1.33;75.83;97831.50;1627378;87;21147;-83
2020/12/20 10:44:29;;;;;;;31.90;19.62;;;;;;;1.37;75.39;97827.50;1643520;87;21128;-83
2020/12/20 10:47:10;;;;;;;29.18;16.50;;;;;;;1.38;75.70;97822.23;1643629;87;21231;-83
2020/12/20 10:49:52;;;;;;;26.80;16.80;;;;;;;1.43;75.70;97821.60;1648763;87;21537;-82
2020/12/20 10:52:22;;;;;;;25.80;13.78;;;;;;;1.50;75.62;97813.95;1643924;87;21069;-83
2020/12/20 10:54:51;;;;;;;20.92;12.85;;;;;;;1.49;75.51;97810.12;1644326;86;21137;-82
2020/12/20 10:57:51;;;;;;;27.27;15.53;;;;;;;1.49;75.32;97809.67;1644619;86;21078;-83
2020/12/20 11:00:22;;;;;;;42.33;28.50;;;;;;;1.48;75.19;97807.11;1644232;86;21211;-82
2020/12/20 11:02:51;;;;;;;33.70;20.85;;;;;;;1.48;75.16;97809.28;1644186;87;21085;-81
2020/12/20 11:05:28;;;;;;;23.62;15.45;;;;;;;1.47;74.92;97809.33;1627637;87;21104;-83
2020/12/20 11:08:00;;;;;;;32.58;19.90;;;;;;;1.39;74.60;97807.05;1643904;87;21399;-83
2020/12/20 11:10:34;;;;;;;29.05;16.23;;;;;;;1.33;75.05;97807.30;1643705;87;21239;-82
2020/12/20 11:13:03;;;;;;;24.07;14.45;;;;;;;1.28;75.03;97808.78;1643783;87;21214;-82
2020/12/20 11:15:34;;;;;;;24.00;13.93;;;;;;;1.22;75.30;97802.55;1643787;87;21183;-83
2020/12/20 11:18:03;;;;;;;25.02;15.03;;;;;;;1.20;75.66;97801.77;1642959;87;21109;-82
2020/12/20 11:20:34;;;;;;;27.17;15.90;;;;;;;1.25;75.86;97802.89;1643120;87;21329;-84
2020/12/20 11:27:19;;;;;;;28.10;16.77;;;;;;;1.32;75.86;97797.84;1707136;78;22637;-84
2020/12/20 11:30:31;;;;;;;33.38;20.57;;;;;;;1.28;75.91;97796.27;1608751;88;21170;-86
2020/12/20 11:33:54;;;;;;;36.05;19.20;;;;;;;1.22;76.20;97797.35;1609439;83;21184;-85
2020/12/20 11:37:15;;;;;;;27.73;17.48;;;;;;;1.23;76.70;97790.41;1664861;81;21485;-84
2020/12/20 11:40:34;;;;;;;30.17;20.10;;;;;;;1.36;76.05;97797.23;1702422;82;21141;-85
2020/12/20 11:58:42;;;;;;;25.17;14.70;;;;;;;0.98;76.57;97790.10;1669722;80;20271;-85
2020/12/20 12:02:30;;;;;;;25.40;14.95;;;;;;;1.06;76.47;97791.92;1655319;82;21316;31
2020/12/20 12:28:25;;;;;;;32.65;17.05;;;;;;;0.98;76.74;97794.45;1636109;83;21259;-82
2020/12/20 12:32:13;;;;;;;33.90;17.23;;;;;;;1.03;76.80;97801.59;1637519;82;21285;31
2020/12/20 12:35:36;;;;;;;32.93;20.48;;;;;;;1.05;76.58;97801.08;1588257;86;21228;31
2020/12/20 12:38:59;;;;;;;33.48;19.42;;;;;;;0.98;76.57;97801.77;1632418;88;21104;-85
2020/12/20 12:43:00;;;;;;;27.37;16.37;;;;;;;0.92;76.69;97796.83;1650593;82;21803;-83
2020/12/20 12:46:17;;;;;;;34.10;19.75;;;;;;;0.83;77.04;97797.20;1654003;83;21178;-85
2020/12/20 12:49:35;;;;;;;27.20;16.05;;;;;;;0.81;77.24;97797.70;1695164;83;21500;-84
2020/12/20 12:52:57;;;;;;;27.00;16.32;;;;;;;0.75;77.13;97805.25;1665144;83;21178;-84
2020/12/20 12:56:00;;;;;;;29.52;15.88;;;;;;;0.67;77.52;97801.28;1674157;83;21207;-85
2020/12/20 12:59:15;;;;;;;24.65;13.83;;;;;;;0.69;77.60;97798.17;1640524;82;21229;-85
2020/12/20 13:02:27;;;;;;;27.73;16.50;;;;;;;0.71;77.47;97808.02;1666013;85;21166;-85
2020/12/20 13:05:42;;;;;;;31.25;18.52;;;;;;;0.61;77.71;97810.13;1665643;81;21064;-85
2020/12/20 13:11:40;;;;;;;32.95;17.35;;;;;;;0.65;77.96;97814.31;1662789;81;21309;-85
2020/12/20 13:14:49;;;;;;;34.48;18.85;;;;;;;0.69;77.95;97809.38;1721167;82;21049;-85
2020/12/20 13:29:19;;;;;;;32.63;19.55;;;;;;;0.52;78.68;97820.83;1675824;82;21118;-85
2020/12/20 13:32:16;;;;;;;33.70;18.05;;;;;;;0.61;78.94;97823.55;1711134;81;21113;-83